createdAt,value
2017-09-22T00:01:58.633Z,99.90
2017-09-22T00:04:26.155Z,99.90
2017-09-22T00:06:53.681Z,99.90
2017-09-22T00:09:21.217Z,99.90
2017-09-22T00:11:48.767Z,99.90
2017-09-22T00:14:16.330Z,99.90
2017-09-22T00:16:43.886Z,99.90
2017-09-22T00:19:12.954Z,99.90
2017-09-22T00:21:42.157Z,99.90
2017-09-22T00:24:09.702Z,99.90
2017-09-22T00:26:37.993Z,99.90
2017-09-22T00:29:05.545Z,99.90
2017-09-22T00:31:33.850Z,99.90
2017-09-22T00:34:01.420Z,99.90
2017-09-22T00:36:28.944Z,99.90
2017-09-22T00:38:56.489Z,99.90
2017-09-22T00:41:24.781Z,99.90
2017-09-22T00:43:53.062Z,99.90
2017-09-22T00:46:20.601Z,99.90
2017-09-22T00:48:48.893Z,99.90
2017-09-22T00:51:16.425Z,99.90
2017-09-22T00:53:44.030Z,99.90
2017-09-22T00:56:11.557Z,99.90
2017-09-22T00:58:39.853Z,99.90
2017-09-22T01:01:07.389Z,99.90
2017-09-22T01:03:34.905Z,99.90
2017-09-22T01:06:02.453Z,99.90
2017-09-22T01:08:30.013Z,99.90
2017-09-22T01:10:57.543Z,99.90
2017-09-22T01:13:25.828Z,99.90
2017-09-22T01:15:53.423Z,99.90
2017-09-22T01:18:20.950Z,99.90
2017-09-22T01:20:48.528Z,99.90
2017-09-22T01:23:16.073Z,99.90
2017-09-22T01:25:45.770Z,99.90
2017-09-22T01:28:13.306Z,99.90
2017-09-22T01:30:40.922Z,99.90
2017-09-22T01:33:08.446Z,99.90
2017-09-22T01:35:36.041Z,99.90
2017-09-22T01:38:03.602Z,99.90
2017-09-22T01:40:31.117Z,99.90
2017-09-22T01:42:59.413Z,99.90
2017-09-22T01:45:26.953Z,99.90
2017-09-22T01:47:55.237Z,99.90
2017-09-22T01:50:23.521Z,99.90
2017-09-22T01:52:51.828Z,99.90
2017-09-22T01:55:19.349Z,99.90
2017-09-22T01:57:47.645Z,99.90
2017-09-22T02:00:15.185Z,99.90
2017-09-22T02:02:43.476Z,99.90
2017-09-22T02:05:11.056Z,99.90
2017-09-22T02:07:38.599Z,99.90
2017-09-22T02:10:06.125Z,99.90
2017-09-22T02:12:33.662Z,99.90
2017-09-22T02:15:01.205Z,99.90
2017-09-22T02:17:28.756Z,99.90
2017-09-22T02:19:56.276Z,99.90
2017-09-22T02:22:24.581Z,99.90
2017-09-22T02:24:52.114Z,99.90
2017-09-22T02:27:20.429Z,99.90
2017-09-22T02:29:47.985Z,99.90
2017-09-22T02:32:15.556Z,99.90
2017-09-22T02:34:43.106Z,99.90
2017-09-22T02:37:10.802Z,99.90
2017-09-22T02:39:38.325Z,99.90
2017-09-22T02:42:05.846Z,99.90
2017-09-22T02:44:34.154Z,99.90
2017-09-22T02:47:01.682Z,99.90
2017-09-22T02:49:29.970Z,99.90
2017-09-22T02:51:58.277Z,99.90
2017-09-22T02:54:25.805Z,99.90
2017-09-22T02:56:54.103Z,99.90
2017-09-22T02:59:21.637Z,99.90
2017-09-22T03:01:50.050Z,99.90
2017-09-22T03:04:17.569Z,99.90
2017-09-22T03:06:45.891Z,99.90
2017-09-22T03:09:13.408Z,99.90
2017-09-22T03:11:41.725Z,99.90
2017-09-22T03:14:09.267Z,99.90
2017-09-22T03:16:36.848Z,99.90
2017-09-22T03:19:04.410Z,99.90
2017-09-22T03:21:31.950Z,99.90
2017-09-22T03:23:59.470Z,99.90
2017-09-22T03:26:28.522Z,99.90
2017-09-22T03:28:56.077Z,99.90
2017-09-22T03:31:23.640Z,99.90
2017-09-22T03:33:51.156Z,99.90
2017-09-22T03:36:19.478Z,99.90
2017-09-22T03:38:47.035Z,99.90
2017-09-22T03:41:14.562Z,99.90
2017-09-22T03:43:42.866Z,99.90
2017-09-22T03:46:10.434Z,99.90
2017-09-22T03:48:37.994Z,99.90
2017-09-22T03:51:05.534Z,99.90
2017-09-22T03:53:33.058Z,99.90
2017-09-22T03:56:01.350Z,99.90
2017-09-22T03:58:29.769Z,99.90
2017-09-22T04:00:57.290Z,99.90
2017-09-22T04:03:25.612Z,99.90
2017-09-22T04:05:53.145Z,99.90
2017-09-22T04:08:20.671Z,99.90
2017-09-22T04:10:48.198Z,99.90
2017-09-22T04:13:15.742Z,99.90
2017-09-22T04:15:43.264Z,99.90
2017-09-22T04:18:11.557Z,99.90
2017-09-22T04:20:39.101Z,99.90
2017-09-22T04:23:07.417Z,99.90
2017-09-22T04:25:34.933Z,99.90
2017-09-22T04:28:02.479Z,99.90
2017-09-22T04:30:30.012Z,99.90
2017-09-22T04:32:57.556Z,99.90
2017-09-22T04:35:25.110Z,99.90
2017-09-22T04:37:52.675Z,99.90
2017-09-22T04:40:20.194Z,99.90
2017-09-22T04:42:48.502Z,99.90
2017-09-22T04:45:16.071Z,99.90
2017-09-22T04:47:43.602Z,99.90
2017-09-22T04:50:11.190Z,99.90
2017-09-22T04:52:38.721Z,99.90
2017-09-22T04:55:06.245Z,99.90
2017-09-22T04:57:33.789Z,99.90
2017-09-22T05:00:01.326Z,99.90
2017-09-22T05:02:28.854Z,99.90
2017-09-22T05:04:57.162Z,99.90
2017-09-22T05:07:26.157Z,99.90
2017-09-22T05:09:53.677Z,99.90
2017-09-22T05:12:21.977Z,99.90
2017-09-22T05:14:49.493Z,99.90
2017-09-22T05:17:17.025Z,99.90
2017-09-22T05:19:44.669Z,99.90
2017-09-22T05:22:12.288Z,99.90
2017-09-22T05:24:40.569Z,99.90
2017-09-22T05:27:09.393Z,99.90
2017-09-22T05:29:36.917Z,99.90
2017-09-22T05:32:05.237Z,99.90
2017-09-22T05:34:32.906Z,99.90
2017-09-22T05:37:00.454Z,99.90
2017-09-22T05:39:28.822Z,99.90
2017-09-22T05:41:56.363Z,99.90
2017-09-22T05:44:24.648Z,99.90
2017-09-22T05:46:52.223Z,99.90
2017-09-22T05:49:19.790Z,99.90
2017-09-22T05:51:47.322Z,99.90
2017-09-22T05:54:15.613Z,99.90
2017-09-22T05:56:43.154Z,99.90
2017-09-22T05:59:11.446Z,99.90
2017-09-22T06:01:38.978Z,99.90
2017-09-22T06:04:07.305Z,99.90
2017-09-22T06:06:34.833Z,99.90
2017-09-22T06:09:03.121Z,99.90
2017-09-22T06:11:30.709Z,99.90
2017-09-22T06:13:59.157Z,99.90
2017-09-22T06:16:26.701Z,99.90
2017-09-22T06:18:55.013Z,99.90
2017-09-22T06:21:22.577Z,99.90
2017-09-22T06:23:50.109Z,99.90
2017-09-22T06:26:18.413Z,99.90
2017-09-22T06:28:45.979Z,99.90
2017-09-22T06:31:13.529Z,99.90
2017-09-22T06:33:41.093Z,99.90
2017-09-22T06:36:08.625Z,99.90
2017-09-22T06:38:36.152Z,99.90
2017-09-22T06:41:03.696Z,99.90
2017-09-22T06:43:31.224Z,99.90
2017-09-22T06:45:58.746Z,99.90
2017-09-22T06:48:27.060Z,99.90
2017-09-22T06:50:54.590Z,99.90
2017-09-22T06:53:22.883Z,99.90
2017-09-22T06:55:50.428Z,99.90
2017-09-22T06:58:18.714Z,99.90
2017-09-22T07:00:46.305Z,99.90
2017-09-22T07:03:13.850Z,99.90
2017-09-22T07:05:41.386Z,99.90
2017-09-22T07:08:09.694Z,99.90
2017-09-22T07:10:37.245Z,99.90
2017-09-22T07:13:05.030Z,99.90
2017-09-22T07:15:32.566Z,99.90
2017-09-22T07:18:01.065Z,99.90
2017-09-22T07:20:28.626Z,99.90
2017-09-22T07:22:56.185Z,99.90
2017-09-22T07:25:23.737Z,99.90
2017-09-22T07:27:51.297Z,99.90
2017-09-22T07:30:18.864Z,99.90
2017-09-22T07:32:47.009Z,99.90
2017-09-22T07:35:14.549Z,99.90
2017-09-22T07:37:42.840Z,99.90
2017-09-22T07:40:11.145Z,99.90
2017-09-22T07:42:38.705Z,99.90
2017-09-22T07:45:06.262Z,99.90
2017-09-22T07:47:33.834Z,99.90
2017-09-22T07:50:02.909Z,99.90
2017-09-22T07:52:30.477Z,99.90
2017-09-22T07:54:58.150Z,99.90
2017-09-22T07:57:25.682Z,99.90
2017-09-22T07:59:53.212Z,99.90
2017-09-22T08:02:21.530Z,99.90
2017-09-22T08:04:49.069Z,99.90
2017-09-22T08:07:17.381Z,99.90
2017-09-22T08:09:44.926Z,99.90
2017-09-22T08:12:12.462Z,99.90
2017-09-22T08:14:40.759Z,99.90
2017-09-22T08:17:08.441Z,99.90
2017-09-22T08:19:36.001Z,99.90
2017-09-22T08:22:03.566Z,99.90
2017-09-22T08:24:31.227Z,99.90
2017-09-22T08:26:58.757Z,99.90
2017-09-22T08:29:26.334Z,99.90
2017-09-22T08:31:53.877Z,99.90
2017-09-22T08:34:21.401Z,99.90
2017-09-22T08:36:49.735Z,99.90
2017-09-22T08:39:17.280Z,99.90
2017-09-22T08:41:44.811Z,99.90
2017-09-22T08:44:13.105Z,99.90
2017-09-22T08:46:41.505Z,99.90
2017-09-22T08:49:09.034Z,99.90
2017-09-22T08:51:37.329Z,99.90
2017-09-22T08:54:04.882Z,99.90
2017-09-22T08:56:32.431Z,99.90
2017-09-22T08:59:00.746Z,99.90
2017-09-22T09:01:28.302Z,99.90
2017-09-22T09:03:55.836Z,99.90
2017-09-22T09:06:23.422Z,99.90
2017-09-22T09:08:50.979Z,99.90
2017-09-22T09:11:18.506Z,99.90
2017-09-22T09:13:46.818Z,99.90
2017-09-22T09:16:14.398Z,99.90
2017-09-22T09:18:41.938Z,99.90
2017-09-22T09:21:09.474Z,99.90
2017-09-22T09:23:37.061Z,99.90
2017-09-22T09:26:05.721Z,99.90
2017-09-22T09:28:33.254Z,99.90
2017-09-22T09:31:01.581Z,99.90
2017-09-22T09:33:29.115Z,99.90
2017-09-22T09:35:56.709Z,99.90
2017-09-22T09:38:24.257Z,99.90
2017-09-22T09:40:51.785Z,99.90
2017-09-22T09:43:20.083Z,99.90
2017-09-22T09:45:47.625Z,99.90
2017-09-22T09:48:15.185Z,99.90
2017-09-22T09:50:43.509Z,99.90
2017-09-22T09:53:11.057Z,99.90
2017-09-22T09:55:38.588Z,99.90
2017-09-22T09:58:06.112Z,99.90
2017-09-22T10:00:33.736Z,99.90
2017-09-22T10:03:01.262Z,99.90
2017-09-22T10:05:28.790Z,99.90
2017-09-22T10:07:56.340Z,99.90
2017-09-22T10:10:23.986Z,99.90
2017-09-22T10:12:51.514Z,99.90
2017-09-22T10:15:19.090Z,99.90
2017-09-22T10:17:46.618Z,99.90
2017-09-22T10:20:15.023Z,99.90
2017-09-22T10:22:42.590Z,99.90
2017-09-22T10:25:10.130Z,99.90
2017-09-22T10:27:37.657Z,99.90
2017-09-22T10:30:05.205Z,99.90
2017-09-22T10:32:32.742Z,99.90
2017-09-22T10:35:00.281Z,99.90
2017-09-22T10:37:27.835Z,99.90
2017-09-22T10:39:55.405Z,99.90
2017-09-22T10:42:22.961Z,99.90
2017-09-22T10:44:50.521Z,99.90
2017-09-22T10:47:18.085Z,99.90
2017-09-22T10:49:45.611Z,99.90
2017-09-22T10:52:13.921Z,99.90
2017-09-22T10:54:41.450Z,99.90
2017-09-22T10:57:09.743Z,99.90
2017-09-22T10:59:38.644Z,99.90
2017-09-22T11:02:06.166Z,99.90
2017-09-22T11:04:34.470Z,99.90
2017-09-22T11:07:02.015Z,99.90
2017-09-22T11:09:30.310Z,99.90
2017-09-22T11:11:57.842Z,99.90
2017-09-22T11:14:26.270Z,99.90
2017-09-22T11:16:53.818Z,99.90
2017-09-22T11:19:21.354Z,99.90
2017-09-22T11:21:48.937Z,99.90
2017-09-22T11:24:16.461Z,99.90
2017-09-22T11:26:44.758Z,99.90
2017-09-22T11:29:12.341Z,99.90
2017-09-22T11:31:39.489Z,99.90
2017-09-22T11:34:06.522Z,99.90
2017-09-22T11:36:34.073Z,99.90
2017-09-22T11:39:01.594Z,99.90
2017-09-22T11:41:29.225Z,99.90
2017-09-22T11:43:56.873Z,99.90
2017-09-22T11:46:24.401Z,99.90
2017-09-22T11:48:52.717Z,99.90
2017-09-22T11:51:20.268Z,99.90
2017-09-22T11:53:47.795Z,99.90
2017-09-22T11:56:16.090Z,99.90
2017-09-22T11:58:43.640Z,99.90
2017-09-22T12:01:11.169Z,99.90
2017-09-22T12:03:39.630Z,99.90
2017-09-22T12:06:07.274Z,99.90
2017-09-22T12:08:34.808Z,99.90
2017-09-22T12:11:02.334Z,99.90
2017-09-22T12:13:29.882Z,99.90
2017-09-22T12:15:57.418Z,99.90
2017-09-22T12:18:24.954Z,99.90
2017-09-22T12:20:52.498Z,99.90
2017-09-22T12:23:20.022Z,99.90
2017-09-22T12:25:47.546Z,99.90
2017-09-22T12:28:15.102Z,99.90
2017-09-22T12:30:42.637Z,99.90
2017-09-22T12:33:10.601Z,99.90
2017-09-22T12:35:38.905Z,99.90
2017-09-22T12:38:06.473Z,99.90
2017-09-22T12:40:33.997Z,99.90
2017-09-22T12:43:02.405Z,99.90
2017-09-22T12:45:29.931Z,99.90
2017-09-22T12:47:58.247Z,99.90
2017-09-22T12:50:25.805Z,99.90
2017-09-22T12:52:53.337Z,99.90
2017-09-22T12:55:20.931Z,99.90
2017-09-22T12:57:48.482Z,99.90
2017-09-22T13:00:16.045Z,99.90
2017-09-22T13:02:43.606Z,99.90
2017-09-22T13:05:12.493Z,99.90
2017-09-22T13:07:40.025Z,99.90
2017-09-22T13:10:08.319Z,99.90
2017-09-22T13:12:35.871Z,99.90
2017-09-22T13:15:03.405Z,99.90
2017-09-22T13:17:31.698Z,99.90
2017-09-22T13:19:59.288Z,99.90
2017-09-22T13:22:26.818Z,99.90
2017-09-22T13:24:54.351Z,99.90
2017-09-22T13:27:21.895Z,99.90
2017-09-22T13:29:49.525Z,99.90
2017-09-22T13:32:17.054Z,99.90
2017-09-22T13:34:45.396Z,99.90
2017-09-22T13:37:12.935Z,99.90
2017-09-22T13:39:41.238Z,99.90
2017-09-22T13:42:08.812Z,99.90
2017-09-22T13:44:37.109Z,99.90
2017-09-22T13:47:05.406Z,99.90
2017-09-22T13:49:32.949Z,99.90
2017-09-22T13:52:00.545Z,99.90
2017-09-22T13:54:28.069Z,99.90
2017-09-22T13:56:55.653Z,99.90
2017-09-22T13:59:23.213Z,99.90
2017-09-22T14:01:50.873Z,99.90
2017-09-22T14:04:18.437Z,99.90
2017-09-22T14:06:45.969Z,99.90
2017-09-22T14:09:14.599Z,99.90
2017-09-22T14:11:44.485Z,99.90
2017-09-22T14:14:12.052Z,99.90
2017-09-22T14:16:39.577Z,99.90
2017-09-22T14:19:07.886Z,99.90
2017-09-22T14:21:35.410Z,99.90
2017-09-22T14:24:03.722Z,99.90
2017-09-22T14:26:31.264Z,99.90
2017-09-22T14:28:58.788Z,99.90
2017-09-22T14:31:26.315Z,99.90
2017-09-22T14:33:53.866Z,96.40
2017-09-22T14:36:21.390Z,97.30
2017-09-22T14:38:49.702Z,91.80
2017-09-22T14:41:17.258Z,91.90
2017-09-22T14:43:45.749Z,91.80
2017-09-22T14:46:13.310Z,91.80
2017-09-22T14:48:40.858Z,91.40
2017-09-22T14:51:08.392Z,91.40
2017-09-22T14:53:36.680Z,92.10
2017-09-22T14:56:04.225Z,92.10
2017-09-22T14:58:32.523Z,82.10
2017-09-22T15:01:00.043Z,82.10
2017-09-22T15:03:28.347Z,85.00
2017-09-22T15:05:55.924Z,84.90
2017-09-22T15:08:23.486Z,84.80
2017-09-22T15:10:51.045Z,86.20
2017-09-22T15:13:18.567Z,88.90
2017-09-22T15:15:46.862Z,90.40
2017-09-22T15:18:14.450Z,90.30
2017-09-22T15:20:42.008Z,91.40
2017-09-22T15:23:09.538Z,91.00
2017-09-22T15:25:37.918Z,88.30
2017-09-22T15:28:05.442Z,88.30
2017-09-22T15:30:32.970Z,90.90
2017-09-22T15:33:00.510Z,91.10
2017-09-22T15:35:28.077Z,90.70
2017-09-22T15:37:55.637Z,90.30
2017-09-22T15:40:23.204Z,87.60
2017-09-22T15:42:50.761Z,88.60
2017-09-22T15:45:18.321Z,90.00
2017-09-22T15:47:45.853Z,89.80
2017-09-22T15:50:14.157Z,89.30
2017-09-22T15:52:41.713Z,89.30
2017-09-22T15:55:09.245Z,90.30
2017-09-22T15:57:37.585Z,94.30
2017-09-22T16:00:05.107Z,94.30
2017-09-22T16:02:32.649Z,94.80
2017-09-22T16:05:00.175Z,96.90
2017-09-22T16:07:27.699Z,96.90
2017-09-22T16:09:55.249Z,98.20
2017-09-22T16:12:22.812Z,99.90
2017-09-22T16:14:50.368Z,99.90
2017-09-22T16:17:19.050Z,99.90
2017-09-22T16:19:46.569Z,99.90
2017-09-22T16:22:14.853Z,99.90
2017-09-22T16:24:43.167Z,99.90
2017-09-22T16:27:10.736Z,99.90
2017-09-22T16:29:38.257Z,99.90
2017-09-22T16:32:06.570Z,99.90
2017-09-22T16:34:34.094Z,99.90
2017-09-22T16:37:02.380Z,99.90
2017-09-22T16:39:29.930Z,99.90
2017-09-22T16:41:58.244Z,99.90
2017-09-22T16:44:25.802Z,99.90
2017-09-22T16:46:53.361Z,99.90
2017-09-22T16:49:20.897Z,99.90
2017-09-22T16:51:49.345Z,99.90
2017-09-22T16:54:16.893Z,99.90
2017-09-22T16:56:44.515Z,99.90
2017-09-22T16:59:12.041Z,99.90
2017-09-22T17:01:40.352Z,99.90
2017-09-22T17:04:07.917Z,99.90
2017-09-22T17:06:36.219Z,99.90
2017-09-22T17:09:03.866Z,99.90
2017-09-22T17:11:31.413Z,99.90
2017-09-22T17:13:58.977Z,99.90
2017-09-22T17:16:26.527Z,99.90
2017-09-22T17:18:54.048Z,99.90
2017-09-22T17:21:22.335Z,99.90
2017-09-22T17:23:51.568Z,99.90
2017-09-22T17:26:19.094Z,99.90
2017-09-22T17:28:47.386Z,99.90
2017-09-22T17:31:14.970Z,99.90
2017-09-22T17:33:42.540Z,99.90
2017-09-22T17:36:10.067Z,99.90
2017-09-22T17:38:37.610Z,99.90
2017-09-22T17:41:06.025Z,99.90
2017-09-22T17:43:33.580Z,99.90
2017-09-22T17:46:01.125Z,99.90
2017-09-22T17:48:28.713Z,99.90
2017-09-22T17:50:56.241Z,99.90
2017-09-22T17:53:23.785Z,99.90
2017-09-22T17:55:52.793Z,99.90
2017-09-22T17:58:20.373Z,99.90
2017-09-22T18:00:47.925Z,99.90
2017-09-22T18:03:15.491Z,99.90
2017-09-22T18:05:43.061Z,99.90
2017-09-22T18:08:10.625Z,99.90
2017-09-22T18:10:38.157Z,99.90
2017-09-22T18:13:05.697Z,99.90
2017-09-22T18:15:34.013Z,99.90
2017-09-22T18:18:01.544Z,99.90
2017-09-22T18:20:29.132Z,99.90
2017-09-22T18:22:56.685Z,99.90
2017-09-22T18:25:24.212Z,99.90
2017-09-22T18:27:53.438Z,99.90
2017-09-22T18:30:20.982Z,99.90
2017-09-22T18:32:49.274Z,99.90
2017-09-22T18:35:16.806Z,99.90
2017-09-22T18:37:45.228Z,99.90
2017-09-22T18:40:12.762Z,99.90
2017-09-22T18:42:40.299Z,99.90
2017-09-22T18:45:08.618Z,99.90
2017-09-22T18:47:36.158Z,99.90
2017-09-22T18:50:03.688Z,99.90
2017-09-22T18:52:31.242Z,99.90
2017-09-22T18:54:58.870Z,99.90
2017-09-22T18:57:26.402Z,99.90
2017-09-22T18:59:55.241Z,99.90
2017-09-22T19:02:22.870Z,99.90
2017-09-22T19:04:50.437Z,99.90
2017-09-22T19:07:17.977Z,99.90
2017-09-22T19:09:45.505Z,99.90
2017-09-22T19:12:13.831Z,99.90
2017-09-22T19:14:41.373Z,99.90
2017-09-22T19:17:08.919Z,99.90
2017-09-22T19:19:37.225Z,99.90
2017-09-22T19:22:04.771Z,99.90
2017-09-22T19:24:32.345Z,99.90
2017-09-22T19:26:59.907Z,99.90
2017-09-22T19:29:27.478Z,99.90
2017-09-22T19:31:56.531Z,99.90
2017-09-22T19:34:24.072Z,99.90
2017-09-22T19:36:52.386Z,99.90
2017-09-22T19:39:20.486Z,99.90
2017-09-22T19:41:48.044Z,99.90
2017-09-22T19:44:15.590Z,99.90
2017-09-22T19:46:43.123Z,99.90
2017-09-22T19:49:10.710Z,99.90
2017-09-22T19:51:38.253Z,99.90
2017-09-22T19:54:05.782Z,99.90
2017-09-22T19:56:34.102Z,99.90
2017-09-22T19:59:01.648Z,99.90
2017-09-22T20:01:29.173Z,99.90
2017-09-22T20:03:57.781Z,99.90
2017-09-22T20:06:25.365Z,99.90
2017-09-22T20:08:52.925Z,99.90
2017-09-22T20:11:20.449Z,99.90
2017-09-22T20:13:48.865Z,99.90
2017-09-22T20:16:17.295Z,99.90
2017-09-22T20:18:44.863Z,99.90
2017-09-22T20:21:13.174Z,99.90
2017-09-22T20:23:40.758Z,99.90
2017-09-22T20:26:08.309Z,99.90
2017-09-22T20:28:35.904Z,99.90
2017-09-22T20:31:03.426Z,99.90
2017-09-22T20:33:30.955Z,99.90
2017-09-22T20:35:59.370Z,99.90
2017-09-22T20:38:26.926Z,99.90
2017-09-22T20:40:54.450Z,99.90
2017-09-22T20:43:22.025Z,99.90
2017-09-22T20:45:49.549Z,99.90
2017-09-22T20:48:17.070Z,99.90
2017-09-22T20:50:44.621Z,99.90
2017-09-22T20:53:12.149Z,99.90
2017-09-22T20:55:40.458Z,99.90
2017-09-22T20:58:08.773Z,99.90
2017-09-22T21:00:36.408Z,99.90
2017-09-22T21:03:03.974Z,99.90
2017-09-22T21:05:31.512Z,99.90
2017-09-22T21:08:00.622Z,99.90
2017-09-22T21:10:28.172Z,99.90
2017-09-22T21:12:55.722Z,99.90
2017-09-22T21:15:23.246Z,99.90
2017-09-22T21:17:51.538Z,99.90
2017-09-22T21:20:19.953Z,99.90
2017-09-22T21:22:47.481Z,99.90
2017-09-22T21:25:15.066Z,99.90
2017-09-22T21:27:42.622Z,99.90
2017-09-22T21:30:10.194Z,99.90
2017-09-22T21:32:37.725Z,99.90
2017-09-22T21:35:05.604Z,99.90
2017-09-22T21:37:33.181Z,99.90
2017-09-22T21:40:01.930Z,99.90
2017-09-22T21:42:31.262Z,99.90
2017-09-22T21:44:59.201Z,99.90
2017-09-22T21:47:27.500Z,99.90
2017-09-22T21:49:55.071Z,99.90
2017-09-22T21:52:22.623Z,99.90
2017-09-22T21:54:50.189Z,99.90
2017-09-22T21:57:17.733Z,99.90
2017-09-22T21:59:45.519Z,99.90
2017-09-22T22:02:13.153Z,99.90
2017-09-22T22:04:46.341Z,99.90
2017-09-22T22:07:19.521Z,99.90
2017-09-22T22:09:47.841Z,99.90
2017-09-22T22:12:15.364Z,99.90
2017-09-22T22:14:42.957Z,99.90
2017-09-22T22:17:11.427Z,99.90
2017-09-22T22:19:39.005Z,99.90
2017-09-22T22:22:06.553Z,99.90
2017-09-22T22:24:34.216Z,99.90
2017-09-22T22:27:01.744Z,99.90
2017-09-22T22:29:29.290Z,99.90
2017-09-22T22:31:57.606Z,99.90
2017-09-22T22:34:25.174Z,99.90
2017-09-22T22:37:04.830Z,99.90
2017-09-22T22:39:32.357Z,99.90
2017-09-22T22:41:59.889Z,99.90
2017-09-22T22:44:28.334Z,99.90
2017-09-22T22:46:58.453Z,99.90
2017-09-22T22:49:25.981Z,99.90
2017-09-22T22:51:53.534Z,99.90
2017-09-22T22:54:23.323Z,99.90
2017-09-22T22:56:51.841Z,99.90
2017-09-22T22:59:19.409Z,99.90
2017-09-22T23:01:46.933Z,99.90
2017-09-22T23:04:15.817Z,99.90
2017-09-22T23:06:44.239Z,99.90
2017-09-22T23:09:11.833Z,99.90
2017-09-22T23:11:39.365Z,99.90
2017-09-22T23:14:06.970Z,99.90
2017-09-22T23:16:36.203Z,99.90
2017-09-22T23:19:03.729Z,99.90
2017-09-22T23:21:32.061Z,99.90
2017-09-22T23:23:59.572Z,99.90
2017-09-22T23:26:27.904Z,99.90
2017-09-22T23:28:55.451Z,99.90
2017-09-22T23:31:23.017Z,99.90
2017-09-22T23:33:50.544Z,99.90
2017-09-22T23:36:18.924Z,99.90
2017-09-22T23:38:46.608Z,99.90
2017-09-22T23:41:14.132Z,99.90
2017-09-22T23:43:42.442Z,99.90
2017-09-22T23:46:09.970Z,99.90
2017-09-22T23:48:38.256Z,99.90
2017-09-22T23:51:07.490Z,99.90
2017-09-22T23:53:35.042Z,99.90
2017-09-22T23:56:02.570Z,99.90
2017-09-22T23:58:30.894Z,99.90
